Portada
METAR-TAF:

METAR-TAF

Aeroports :

Tak, Tailàndia

latitud: 16-53N, longitud: 099-09E, altitud: 121 m

METAR: manca

Hora: 11:05 (04:05 UTC)

Pronòstic

L'informe es va fer fa 5 hores i 5 minuts, a les 23:00 UTC
Pronòstic vàlid del 12 a les 00 UTC al 12 a les 24 UTC
Vent 4 kt del Est
Visibilitat 10 km o més
Núvols disperses a una alçada de 2500 ft

TAF: VTPT 112300Z 1200/1224 09004KT 9999 SCT025

Observacions i pronòstics meteorològics de més de 4000 aeroports (METAR i TAF).

Les estacions disponibles són els punts grocs i vermells al mapa.

Posi el ratolí al punt desitjat per veure el nom de l'estació.

Feu clic per veure les observacions i els pronòstics meteorològics.

Per canviar el mapa: feu clic els botons verds amb una creu de color negre per apropar; al botó verd amb un guió per allunyar la imatge; o en les fletxes verdes per a mapes adjacents.


METAR-TAF: